sensor_id;sensor_type;location;lat;lon;timestamp;temperature;humidity
18043;DHT22;9146;48.074;11.968;2023-08-01T00:01:19;17.00;99.90
18043;DHT22;9146;48.074;11.968;2023-08-01T00:03:46;17.00;99.90
18043;DHT22;9146;48.074;11.968;2023-08-01T00:06:13;17.00;99.90
18043;DHT22;9146;48.074;11.968;2023-08-01T00:08:40;17.00;99.90
18043;DHT22;9146;48.074;11.968;2023-08-01T00:11:06;17.00;99.90
18043;DHT22;9146;48.074;11.968;2023-08-01T00:13:35;17.00;99.90
18043;DHT22;9146;48.074;11.968;2023-08-01T00:16:04;16.90;99.90
18043;DHT22;9146;48.074;11.968;2023-08-01T00:18:30;16.90;99.90
18043;DHT22;9146;48.074;11.968;2023-08-01T00:20:57;16.90;99.90
18043;DHT22;9146;48.074;11.968;2023-08-01T00:23:25;16.90;99.90
18043;DHT22;9146;48.074;11.968;2023-08-01T00:25:52;16.90;99.90
18043;DHT22;9146;48.074;11.968;2023-08-01T00:28:19;16.90;99.90
18043;DHT22;9146;48.074;11.968;2023-08-01T00:30:45;16.90;99.90
18043;DHT22;9146;48.074;11.968;2023-08-01T00:33:14;16.90;99.90
18043;DHT22;9146;48.074;11.968;2023-08-01T00:35:41;16.90;99.90
18043;DHT22;9146;48.074;11.968;2023-08-01T00:38:08;16.90;99.90
18043;DHT22;9146;48.074;11.968;2023-08-01T00:40:35;16.80;99.90
18043;DHT22;9146;48.074;11.968;2023-08-01T00:43:01;16.80;99.90
18043;DHT22;9146;48.074;11.968;2023-08-01T00:45:29;16.80;99.90
18043;DHT22;9146;48.074;11.968;2023-08-01T00:47:56;16.80;99.90
18043;DHT22;9146;48.074;11.968;2023-08-01T00:50:24;16.70;99.90
18043;DHT22;9146;48.074;11.968;2023-08-01T00:52:52;16.70;99.90
18043;DHT22;9146;48.074;11.968;2023-08-01T00:55:19;16.70;99.90
18043;DHT22;9146;48.074;11.968;2023-08-01T00:57:47;16.60;99.90
18043;DHT22;9146;48.074;11.968;2023-08-01T01:00:16;16.60;99.90
18043;DHT22;9146;48.074;11.968;2023-08-01T01:02:42;16.60;99.90
18043;DHT22;9146;48.074;11.968;2023-08-01T01:05:09;16.60;99.90
18043;DHT22;9146;48.074;11.968;2023-08-01T01:07:39;16.70;99.90
18043;DHT22;9146;48.074;11.968;2023-08-01T01:10:06;16.70;99.90
18043;DHT22;9146;48.074;11.968;2023-08-01T01:12:33;16.70;99.90
18043;DHT22;9146;48.074;11.968;2023-08-01T01:15:00;16.70;99.90
18043;DHT22;9146;48.074;11.968;2023-08-01T01:17:27;16.70;99.90
18043;DHT22;9146;48.074;11.968;2023-08-01T01:19:54;16.70;99.90
18043;DHT22;9146;48.074;11.968;2023-08-01T01:22:26;16.70;99.90
18043;DHT22;9146;48.074;11.968;2023-08-01T01:24:54;16.70;99.90
18043;DHT22;9146;48.074;11.968;2023-08-01T01:27:23;16.70;99.90
18043;DHT22;9146;48.074;11.968;2023-08-01T01:29:50;16.70;99.90
18043;DHT22;9146;48.074;11.968;2023-08-01T01:32:19;16.70;99.90
18043;DHT22;9146;48.074;11.968;2023-08-01T01:34:46;16.70;99.90
18043;DHT22;9146;48.074;11.968;2023-08-01T01:37:13;16.80;99.90
18043;DHT22;9146;48.074;11.968;2023-08-01T01:39:42;16.80;99.90
18043;DHT22;9146;48.074;11.968;2023-08-01T01:42:09;16.80;99.90
18043;DHT22;9146;48.074;11.968;2023-08-01T01:44:37;16.70;99.90
18043;DHT22;9146;48.074;11.968;2023-08-01T01:47:05;16.80;99.90
18043;DHT22;9146;48.074;11.968;2023-08-01T01:49:33;16.80;99.90
18043;DHT22;9146;48.074;11.968;2023-08-01T01:52:00;16.80;99.90
18043;DHT22;9146;48.074;11.968;2023-08-01T01:54:27;16.80;99.90
18043;DHT22;9146;48.074;11.968;2023-08-01T01:56:55;16.80;99.90
18043;DHT22;9146;48.074;11.968;2023-08-01T01:59:22;16.70;99.90
18043;DHT22;9146;48.074;11.968;2023-08-01T02:01:49;16.80;99.90
18043;DHT22;9146;48.074;11.968;2023-08-01T02:04:15;16.80;99.90
18043;DHT22;9146;48.074;11.968;2023-08-01T02:06:43;16.70;99.90
18043;DHT22;9146;48.074;11.968;2023-08-01T02:09:10;16.80;99.90
18043;DHT22;9146;48.074;11.968;2023-08-01T02:11:37;16.80;99.90
18043;DHT22;9146;48.074;11.968;2023-08-01T02:14:05;16.70;99.90
18043;DHT22;9146;48.074;11.968;2023-08-01T02:16:32;16.70;99.90
18043;DHT22;9146;48.074;11.968;2023-08-01T02:18:59;16.70;99.90
18043;DHT22;9146;48.074;11.968;2023-08-01T02:21:26;16.70;99.90
18043;DHT22;9146;48.074;11.968;2023-08-01T02:23:53;16.70;99.90
18043;DHT22;9146;48.074;11.968;2023-08-01T02:26:19;16.70;99.90
18043;DHT22;9146;48.074;11.968;2023-08-01T02:28:48;16.70;99.90
18043;DHT22;9146;48.074;11.968;2023-08-01T02:31:15;16.60;99.90
18043;DHT22;9146;48.074;11.968;2023-08-01T02:33:42;16.50;99.90
18043;DHT22;9146;48.074;11.968;2023-08-01T02:36:09;16.50;99.90
18043;DHT22;9146;48.074;11.968;2023-08-01T02:38:35;16.40;99.90
18043;DHT22;9146;48.074;11.968;2023-08-01T02:41:02;16.40;99.90
18043;DHT22;9146;48.074;11.968;2023-08-01T02:43:29;16.30;99.90
18043;DHT22;9146;48.074;11.968;2023-08-01T02:45:56;16.30;99.90
18043;DHT22;9146;48.074;11.968;2023-08-01T02:48:26;16.20;99.90
18043;DHT22;9146;48.074;11.968;2023-08-01T02:50:53;16.20;99.90
18043;DHT22;9146;48.074;11.968;2023-08-01T02:53:20;16.20;99.90
18043;DHT22;9146;48.074;11.968;2023-08-01T02:55:47;16.20;99.90
18043;DHT22;9146;48.074;11.968;2023-08-01T02:58:13;16.20;99.90
18043;DHT22;9146;48.074;11.968;2023-08-01T03:00:39;16.20;99.90
18043;DHT22;9146;48.074;11.968;2023-08-01T03:03:06;16.20;99.90
18043;DHT22;9146;48.074;11.968;2023-08-01T03:05:37;16.20;99.90
18043;DHT22;9146;48.074;11.968;2023-08-01T03:08:04;16.20;99.90
18043;DHT22;9146;48.074;11.968;2023-08-01T03:10:31;16.20;99.90
18043;DHT22;9146;48.074;11.968;2023-08-01T03:12:58;16.20;99.90
18043;DHT22;9146;48.074;11.968;2023-08-01T03:15:26;16.20;99.90
18043;DHT22;9146;48.074;11.968;2023-08-01T03:17:53;16.20;99.90
18043;DHT22;9146;48.074;11.968;2023-08-01T03:20:20;16.20;99.90
18043;DHT22;9146;48.074;11.968;2023-08-01T03:22:49;16.20;99.90
18043;DHT22;9146;48.074;11.968;2023-08-01T03:25:16;16.20;99.90
18043;DHT22;9146;48.074;11.968;2023-08-01T03:27:43;16.20;99.90
18043;DHT22;9146;48.074;11.968;2023-08-01T03:30:10;16.20;99.90
18043;DHT22;9146;48.074;11.968;2023-08-01T03:32:37;16.20;99.90
18043;DHT22;9146;48.074;11.968;2023-08-01T03:35:03;16.20;99.90
18043;DHT22;9146;48.074;11.968;2023-08-01T03:37:30;16.20;99.90
18043;DHT22;9146;48.074;11.968;2023-08-01T03:39:59;16.20;99.90
18043;DHT22;9146;48.074;11.968;2023-08-01T03:42:26;16.10;99.90
18043;DHT22;9146;48.074;11.968;2023-08-01T03:44:53;16.20;99.90
18043;DHT22;9146;48.074;11.968;2023-08-01T03:47:19;16.20;99.90
18043;DHT22;9146;48.074;11.968;2023-08-01T03:49:47;16.20;99.90
18043;DHT22;9146;48.074;11.968;2023-08-01T03:52:14;16.20;99.90
18043;DHT22;9146;48.074;11.968;2023-08-01T03:54:41;16.10;99.90
18043;DHT22;9146;48.074;11.968;2023-08-01T03:57:09;16.10;99.90
18043;DHT22;9146;48.074;11.968;2023-08-01T03:59:36;16.10;99.90
18043;DHT22;9146;48.074;11.968;2023-08-01T04:02:03;16.10;99.90
18043;DHT22;9146;48.074;11.968;2023-08-01T04:04:30;16.10;99.90
18043;DHT22;9146;48.074;11.968;2023-08-01T04:06:57;16.10;99.90
18043;DHT22;9146;48.074;11.968;2023-08-01T04:09:24;16.10;99.90
18043;DHT22;9146;48.074;11.968;2023-08-01T04:11:51;16.20;99.90
18043;DHT22;9146;48.074;11.968;2023-08-01T04:14:19;16.20;99.90
18043;DHT22;9146;48.074;11.968;2023-08-01T04:16:46;16.20;99.90
18043;DHT22;9146;48.074;11.968;2023-08-01T04:19:13;16.30;99.90
18043;DHT22;9146;48.074;11.968;2023-08-01T04:21:40;16.30;99.90
18043;DHT22;9146;48.074;11.968;2023-08-01T04:24:06;16.40;99.90
18043;DHT22;9146;48.074;11.968;2023-08-01T04:26:33;16.30;99.90
18043;DHT22;9146;48.074;11.968;2023-08-01T04:29:02;16.30;99.90
18043;DHT22;9146;48.074;11.968;2023-08-01T04:31:30;16.20;99.90
18043;DHT22;9146;48.074;11.968;2023-08-01T04:33:57;16.20;99.90
18043;DHT22;9146;48.074;11.968;2023-08-01T04:36:24;16.10;99.90
18043;DHT22;9146;48.074;11.968;2023-08-01T04:38:51;16.10;99.90
18043;DHT22;9146;48.074;11.968;2023-08-01T04:41:18;16.10;99.90
18043;DHT22;9146;48.074;11.968;2023-08-01T04:43:50;16.00;99.90
18043;DHT22;9146;48.074;11.968;2023-08-01T04:46:17;16.00;99.90
18043;DHT22;9146;48.074;11.968;2023-08-01T04:48:45;16.00;99.90
18043;DHT22;9146;48.074;11.968;2023-08-01T04:51:12;15.90;99.90
18043;DHT22;9146;48.074;11.968;2023-08-01T04:53:39;15.80;99.90
18043;DHT22;9146;48.074;11.968;2023-08-01T04:56:06;15.70;99.90
18043;DHT22;9146;48.074;11.968;2023-08-01T04:58:33;15.60;99.90
18043;DHT22;9146;48.074;11.968;2023-08-01T05:00:59;15.50;99.90
18043;DHT22;9146;48.074;11.968;2023-08-01T05:03:26;15.50;99.90
18043;DHT22;9146;48.074;11.968;2023-08-01T05:05:54;15.40;99.90
18043;DHT22;9146;48.074;11.968;2023-08-01T05:08:21;15.40;99.90
18043;DHT22;9146;48.074;11.968;2023-08-01T05:10:48;15.40;99.90
18043;DHT22;9146;48.074;11.968;2023-08-01T05:13:15;15.40;99.90
18043;DHT22;9146;48.074;11.968;2023-08-01T05:15:44;15.40;99.90
18043;DHT22;9146;48.074;11.968;2023-08-01T05:18:13;15.40;99.90
18043;DHT22;9146;48.074;11.968;2023-08-01T05:20:40;15.40;99.90
18043;DHT22;9146;48.074;11.968;2023-08-01T05:23:08;15.50;99.90
18043;DHT22;9146;48.074;11.968;2023-08-01T05:25:35;15.50;99.90
18043;DHT22;9146;48.074;11.968;2023-08-01T05:28:03;15.60;99.90
18043;DHT22;9146;48.074;11.968;2023-08-01T05:30:30;15.60;99.90
18043;DHT22;9146;48.074;11.968;2023-08-01T05:32:56;15.70;99.90
18043;DHT22;9146;48.074;11.968;2023-08-01T05:35:23;15.70;99.90
18043;DHT22;9146;48.074;11.968;2023-08-01T05:37:50;15.70;99.90
18043;DHT22;9146;48.074;11.968;2023-08-01T05:40:18;15.80;99.90
18043;DHT22;9146;48.074;11.968;2023-08-01T05:42:45;15.80;99.90
18043;DHT22;9146;48.074;11.968;2023-08-01T05:45:12;15.90;99.90
18043;DHT22;9146;48.074;11.968;2023-08-01T05:47:39;15.90;99.90
18043;DHT22;9146;48.074;11.968;2023-08-01T05:50:08;15.90;99.90
18043;DHT22;9146;48.074;11.968;2023-08-01T05:52:35;16.00;99.90
18043;DHT22;9146;48.074;11.968;2023-08-01T05:55:02;16.00;99.90
18043;DHT22;9146;48.074;11.968;2023-08-01T05:57:31;16.00;99.90
18043;DHT22;9146;48.074;11.968;2023-08-01T05:59:58;16.00;99.90
18043;DHT22;9146;48.074;11.968;2023-08-01T06:02:25;16.00;99.90
18043;DHT22;9146;48.074;11.968;2023-08-01T06:04:52;16.00;99.90
18043;DHT22;9146;48.074;11.968;2023-08-01T06:07:19;15.90;99.90
18043;DHT22;9146;48.074;11.968;2023-08-01T06:09:48;15.90;99.90
18043;DHT22;9146;48.074;11.968;2023-08-01T06:12:17;15.90;99.90
18043;DHT22;9146;48.074;11.968;2023-08-01T06:14:45;16.00;99.90
18043;DHT22;9146;48.074;11.968;2023-08-01T06:17:12;16.00;99.90
18043;DHT22;9146;48.074;11.968;2023-08-01T06:19:39;16.10;99.90
18043;DHT22;9146;48.074;11.968;2023-08-01T06:22:06;16.10;99.90
18043;DHT22;9146;48.074;11.968;2023-08-01T06:24:33;16.10;99.90
18043;DHT22;9146;48.074;11.968;2023-08-01T06:27:00;16.20;99.90
18043;DHT22;9146;48.074;11.968;2023-08-01T06:29:27;16.20;99.90
18043;DHT22;9146;48.074;11.968;2023-08-01T06:31:55;16.20;99.90
18043;DHT22;9146;48.074;11.968;2023-08-01T06:34:22;16.20;99.90
18043;DHT22;9146;48.074;11.968;2023-08-01T06:36:50;16.20;99.90
18043;DHT22;9146;48.074;11.968;2023-08-01T06:39:17;16.20;99.90
18043;DHT22;9146;48.074;11.968;2023-08-01T06:41:44;16.30;99.90
18043;DHT22;9146;48.074;11.968;2023-08-01T06:44:11;16.30;99.90
18043;DHT22;9146;48.074;11.968;2023-08-01T06:46:38;16.30;99.90
18043;DHT22;9146;48.074;11.968;2023-08-01T06:49:06;16.30;99.90
18043;DHT22;9146;48.074;11.968;2023-08-01T06:51:33;16.30;99.90
18043;DHT22;9146;48.074;11.968;2023-08-01T06:53:59;16.20;99.90
18043;DHT22;9146;48.074;11.968;2023-08-01T06:56:26;16.20;99.90
18043;DHT22;9146;48.074;11.968;2023-08-01T06:58:53;16.20;99.90
18043;DHT22;9146;48.074;11.968;2023-08-01T07:01:20;16.20;99.90
18043;DHT22;9146;48.074;11.968;2023-08-01T07:03:48;16.20;99.90
18043;DHT22;9146;48.074;11.968;2023-08-01T07:06:18;16.20;99.90
18043;DHT22;9146;48.074;11.968;2023-08-01T07:08:45;16.20;99.90
18043;DHT22;9146;48.074;11.968;2023-08-01T07:11:11;16.20;99.90
18043;DHT22;9146;48.074;11.968;2023-08-01T07:13:38;16.20;99.90
18043;DHT22;9146;48.074;11.968;2023-08-01T07:16:05;16.20;99.90
18043;DHT22;9146;48.074;11.968;2023-08-01T07:18:32;16.20;99.90
18043;DHT22;9146;48.074;11.968;2023-08-01T07:21:00;16.20;99.90
18043;DHT22;9146;48.074;11.968;2023-08-01T07:23:28;16.20;99.90
18043;DHT22;9146;48.074;11.968;2023-08-01T07:25:55;16.30;99.90
18043;DHT22;9146;48.074;11.968;2023-08-01T07:28:22;16.30;99.90
18043;DHT22;9146;48.074;11.968;2023-08-01T07:30:48;16.30;99.90
18043;DHT22;9146;48.074;11.968;2023-08-01T07:33:24;16.30;99.90
18043;DHT22;9146;48.074;11.968;2023-08-01T07:35:50;16.40;99.90
18043;DHT22;9146;48.074;11.968;2023-08-01T07:38:17;16.40;99.90
18043;DHT22;9146;48.074;11.968;2023-08-01T07:40:46;16.40;99.90
18043;DHT22;9146;48.074;11.968;2023-08-01T07:43:13;16.50;99.90
18043;DHT22;9146;48.074;11.968;2023-08-01T07:45:40;16.50;99.90
18043;DHT22;9146;48.074;11.968;2023-08-01T07:48:07;16.50;99.90
18043;DHT22;9146;48.074;11.968;2023-08-01T07:50:34;16.50;99.90
18043;DHT22;9146;48.074;11.968;2023-08-01T07:53:01;16.50;99.90
18043;DHT22;9146;48.074;11.968;2023-08-01T07:55:28;16.50;99.90
18043;DHT22;9146;48.074;11.968;2023-08-01T07:57:56;16.50;99.90
18043;DHT22;9146;48.074;11.968;2023-08-01T08:00:23;16.50;99.90
18043;DHT22;9146;48.074;11.968;2023-08-01T08:02:50;16.60;99.90
18043;DHT22;9146;48.074;11.968;2023-08-01T08:05:17;16.60;99.90
18043;DHT22;9146;48.074;11.968;2023-08-01T08:07:44;16.60;99.90
18043;DHT22;9146;48.074;11.968;2023-08-01T08:10:11;16.60;99.90
18043;DHT22;9146;48.074;11.968;2023-08-01T08:12:38;16.70;99.90
18043;DHT22;9146;48.074;11.968;2023-08-01T08:15:07;16.70;99.90
18043;DHT22;9146;48.074;11.968;2023-08-01T08:17:34;16.80;99.90
18043;DHT22;9146;48.074;11.968;2023-08-01T08:20:01;16.90;99.90
18043;DHT22;9146;48.074;11.968;2023-08-01T08:22:29;17.00;99.90
18043;DHT22;9146;48.074;11.968;2023-08-01T08:24:55;17.10;99.90
18043;DHT22;9146;48.074;11.968;2023-08-01T08:27:23;17.20;99.90
18043;DHT22;9146;48.074;11.968;2023-08-01T08:29:50;17.30;99.90
18043;DHT22;9146;48.074;11.968;2023-08-01T08:32:18;17.50;99.90
18043;DHT22;9146;48.074;11.968;2023-08-01T08:34:45;17.70;99.90
18043;DHT22;9146;48.074;11.968;2023-08-01T08:37:12;18.00;99.90
18043;DHT22;9146;48.074;11.968;2023-08-01T08:39:39;18.20;99.90
18043;DHT22;9146;48.074;11.968;2023-08-01T08:42:06;18.30;99.90
18043;DHT22;9146;48.074;11.968;2023-08-01T08:44:37;18.40;99.90
18043;DHT22;9146;48.074;11.968;2023-08-01T08:47:06;18.60;99.90
18043;DHT22;9146;48.074;11.968;2023-08-01T08:49:35;18.60;99.90
18043;DHT22;9146;48.074;11.968;2023-08-01T08:52:02;18.70;99.90
18043;DHT22;9146;48.074;11.968;2023-08-01T08:54:30;19.00;99.90
18043;DHT22;9146;48.074;11.968;2023-08-01T08:56:58;19.20;99.90
18043;DHT22;9146;48.074;11.968;2023-08-01T08:59:27;19.40;99.90
18043;DHT22;9146;48.074;11.968;2023-08-01T09:01:56;19.50;99.90
18043;DHT22;9146;48.074;11.968;2023-08-01T09:04:22;19.70;99.90
18043;DHT22;9146;48.074;11.968;2023-08-01T09:06:52;19.70;99.90
18043;DHT22;9146;48.074;11.968;2023-08-01T09:09:22;19.60;99.90
18043;DHT22;9146;48.074;11.968;2023-08-01T09:11:52;19.50;99.90
18043;DHT22;9146;48.074;11.968;2023-08-01T09:14:21;19.40;99.90
18043;DHT22;9146;48.074;11.968;2023-08-01T09:16:49;19.40;99.90
18043;DHT22;9146;48.074;11.968;2023-08-01T09:19:17;19.40;99.90
18043;DHT22;9146;48.074;11.968;2023-08-01T09:21:44;19.30;99.90
18043;DHT22;9146;48.074;11.968;2023-08-01T09:24:15;19.30;99.90
18043;DHT22;9146;48.074;11.968;2023-08-01T09:26:42;19.30;99.90
18043;DHT22;9146;48.074;11.968;2023-08-01T09:29:10;19.10;99.90
18043;DHT22;9146;48.074;11.968;2023-08-01T09:31:38;19.00;99.90
18043;DHT22;9146;48.074;11.968;2023-08-01T09:34:17;18.90;99.90
18043;DHT22;9146;48.074;11.968;2023-08-01T09:36:44;18.90;99.90
18043;DHT22;9146;48.074;11.968;2023-08-01T09:39:17;18.90;99.90
18043;DHT22;9146;48.074;11.968;2023-08-01T09:41:45;18.90;99.90
18043;DHT22;9146;48.074;11.968;2023-08-01T09:44:14;19.00;99.90
18043;DHT22;9146;48.074;11.968;2023-08-01T09:46:41;18.90;99.90
18043;DHT22;9146;48.074;11.968;2023-08-01T09:49:10;18.90;99.90
18043;DHT22;9146;48.074;11.968;2023-08-01T09:51:46;18.90;99.90
18043;DHT22;9146;48.074;11.968;2023-08-01T09:54:14;18.90;99.90
18043;DHT22;9146;48.074;11.968;2023-08-01T09:56:44;18.90;99.90
18043;DHT22;9146;48.074;11.968;2023-08-01T09:59:11;18.90;99.90
18043;DHT22;9146;48.074;11.968;2023-08-01T10:01:44;18.80;99.90
18043;DHT22;9146;48.074;11.968;2023-08-01T10:04:11;18.70;99.90
18043;DHT22;9146;48.074;11.968;2023-08-01T10:06:42;18.60;99.90
18043;DHT22;9146;48.074;11.968;2023-08-01T10:09:10;18.60;99.90
18043;DHT22;9146;48.074;11.968;2023-08-01T10:11:38;18.50;99.90
18043;DHT22;9146;48.074;11.968;2023-08-01T10:14:08;18.50;99.90
18043;DHT22;9146;48.074;11.968;2023-08-01T10:16:36;18.40;99.90
18043;DHT22;9146;48.074;11.968;2023-08-01T10:19:06;18.40;99.90
18043;DHT22;9146;48.074;11.968;2023-08-01T10:21:33;18.30;99.90
18043;DHT22;9146;48.074;11.968;2023-08-01T10:24:01;18.30;99.90
18043;DHT22;9146;48.074;11.968;2023-08-01T10:26:29;18.20;99.90
18043;DHT22;9146;48.074;11.968;2023-08-01T10:28:56;18.20;99.90
18043;DHT22;9146;48.074;11.968;2023-08-01T10:31:27;18.10;99.90
18043;DHT22;9146;48.074;11.968;2023-08-01T10:34:04;18.00;99.90
18043;DHT22;9146;48.074;11.968;2023-08-01T10:36:31;17.90;99.90
18043;DHT22;9146;48.074;11.968;2023-08-01T10:39:00;17.90;99.90
18043;DHT22;9146;48.074;11.968;2023-08-01T10:41:29;17.90;99.90
18043;DHT22;9146;48.074;11.968;2023-08-01T10:44:07;17.90;99.90
18043;DHT22;9146;48.074;11.968;2023-08-01T10:46:50;17.90;99.90
18043;DHT22;9146;48.074;11.968;2023-08-01T10:49:18;17.90;99.90
18043;DHT22;9146;48.074;11.968;2023-08-01T10:51:47;17.90;99.90
18043;DHT22;9146;48.074;11.968;2023-08-01T10:54:21;18.00;99.90
18043;DHT22;9146;48.074;11.968;2023-08-01T10:56:51;18.20;99.90
18043;DHT22;9146;48.074;11.968;2023-08-01T10:59:19;18.40;99.90
18043;DHT22;9146;48.074;11.968;2023-08-01T11:01:50;18.60;99.90
18043;DHT22;9146;48.074;11.968;2023-08-01T11:04:17;18.70;99.90
18043;DHT22;9146;48.074;11.968;2023-08-01T11:06:49;18.70;99.90
18043;DHT22;9146;48.074;11.968;2023-08-01T11:09:17;18.60;99.90
18043;DHT22;9146;48.074;11.968;2023-08-01T11:11:45;18.70;99.90
18043;DHT22;9146;48.074;11.968;2023-08-01T11:14:13;18.70;99.90
18043;DHT22;9146;48.074;11.968;2023-08-01T11:16:41;18.70;99.90
18043;DHT22;9146;48.074;11.968;2023-08-01T11:19:19;18.60;99.90
18043;DHT22;9146;48.074;11.968;2023-08-01T11:21:46;18.40;99.90
18043;DHT22;9146;48.074;11.968;2023-08-01T11:24:13;18.20;99.90
18043;DHT22;9146;48.074;11.968;2023-08-01T11:26:42;18.00;99.90
18043;DHT22;9146;48.074;11.968;2023-08-01T11:29:09;17.90;99.90
18043;DHT22;9146;48.074;11.968;2023-08-01T11:31:36;17.80;99.90
18043;DHT22;9146;48.074;11.968;2023-08-01T11:34:03;17.80;99.90
18043;DHT22;9146;48.074;11.968;2023-08-01T11:36:35;17.70;99.90
18043;DHT22;9146;48.074;11.968;2023-08-01T11:39:02;17.50;99.90
18043;DHT22;9146;48.074;11.968;2023-08-01T11:41:30;17.40;99.90
18043;DHT22;9146;48.074;11.968;2023-08-01T11:44:02;17.30;99.90
18043;DHT22;9146;48.074;11.968;2023-08-01T11:46:33;17.20;99.90
18043;DHT22;9146;48.074;11.968;2023-08-01T11:49:01;17.20;99.90
18043;DHT22;9146;48.074;11.968;2023-08-01T11:51:30;17.10;99.90
18043;DHT22;9146;48.074;11.968;2023-08-01T11:54:06;17.00;99.90
18043;DHT22;9146;48.074;11.968;2023-08-01T11:56:35;16.80;99.90
18043;DHT22;9146;48.074;11.968;2023-08-01T11:59:08;16.70;99.90
18043;DHT22;9146;48.074;11.968;2023-08-01T12:01:38;16.70;99.90
18043;DHT22;9146;48.074;11.968;2023-08-01T12:04:05;16.60;99.90
18043;DHT22;9146;48.074;11.968;2023-08-01T12:06:33;16.60;99.90
18043;DHT22;9146;48.074;11.968;2023-08-01T12:09:08;16.60;99.90
18043;DHT22;9146;48.074;11.968;2023-08-01T12:11:35;16.60;99.90
18043;DHT22;9146;48.074;11.968;2023-08-01T12:14:03;16.60;99.90
18043;DHT22;9146;48.074;11.968;2023-08-01T12:16:31;16.70;99.90
18043;DHT22;9146;48.074;11.968;2023-08-01T12:18:58;16.80;99.90
18043;DHT22;9146;48.074;11.968;2023-08-01T12:21:25;16.90;99.90
18043;DHT22;9146;48.074;11.968;2023-08-01T12:23:52;17.10;99.90
18043;DHT22;9146;48.074;11.968;2023-08-01T12:26:20;17.20;99.90
18043;DHT22;9146;48.074;11.968;2023-08-01T12:28:47;17.30;99.90
18043;DHT22;9146;48.074;11.968;2023-08-01T12:31:16;17.40;99.90
18043;DHT22;9146;48.074;11.968;2023-08-01T12:33:44;17.50;99.90
18043;DHT22;9146;48.074;11.968;2023-08-01T12:36:11;17.80;99.90
18043;DHT22;9146;48.074;11.968;2023-08-01T12:38:38;18.20;99.90
18043;DHT22;9146;48.074;11.968;2023-08-01T12:41:05;18.60;99.90
18043;DHT22;9146;48.074;11.968;2023-08-01T12:43:34;19.00;99.90
18043;DHT22;9146;48.074;11.968;2023-08-01T12:46:01;19.30;99.90
18043;DHT22;9146;48.074;11.968;2023-08-01T12:48:28;19.60;99.90
18043;DHT22;9146;48.074;11.968;2023-08-01T12:50:55;19.90;99.90
18043;DHT22;9146;48.074;11.968;2023-08-01T12:53:23;20.00;99.90
18043;DHT22;9146;48.074;11.968;2023-08-01T12:55:51;20.10;99.90
18043;DHT22;9146;48.074;11.968;2023-08-01T12:58:18;20.00;99.90
18043;DHT22;9146;48.074;11.968;2023-08-01T13:00:46;20.20;99.90
18043;DHT22;9146;48.074;11.968;2023-08-01T13:03:13;20.40;99.90
18043;DHT22;9146;48.074;11.968;2023-08-01T13:05:42;20.70;99.90
18043;DHT22;9146;48.074;11.968;2023-08-01T13:08:09;21.00;99.90
18043;DHT22;9146;48.074;11.968;2023-08-01T13:10:38;21.10;99.90
18043;DHT22;9146;48.074;11.968;2023-08-01T13:13:05;21.30;99.90
18043;DHT22;9146;48.074;11.968;2023-08-01T13:15:33;21.40;99.90
18043;DHT22;9146;48.074;11.968;2023-08-01T13:18:02;21.40;99.90
18043;DHT22;9146;48.074;11.968;2023-08-01T13:20:29;21.50;99.90
18043;DHT22;9146;48.074;11.968;2023-08-01T13:22:56;21.40;99.90
18043;DHT22;9146;48.074;11.968;2023-08-01T13:25:23;21.50;99.90
18043;DHT22;9146;48.074;11.968;2023-08-01T13:27:50;21.60;99.90
18043;DHT22;9146;48.074;11.968;2023-08-01T13:30:16;21.50;99.90
18043;DHT22;9146;48.074;11.968;2023-08-01T13:32:44;21.40;99.90
18043;DHT22;9146;48.074;11.968;2023-08-01T13:35:13;21.40;99.90
18043;DHT22;9146;48.074;11.968;2023-08-01T13:37:40;21.30;99.90
18043;DHT22;9146;48.074;11.968;2023-08-01T13:40:08;21.20;99.90
18043;DHT22;9146;48.074;11.968;2023-08-01T13:42:37;21.20;99.90
18043;DHT22;9146;48.074;11.968;2023-08-01T13:45:05;21.10;99.90
18043;DHT22;9146;48.074;11.968;2023-08-01T13:47:32;21.20;99.90
18043;DHT22;9146;48.074;11.968;2023-08-01T13:49:59;21.40;99.90
18043;DHT22;9146;48.074;11.968;2023-08-01T13:52:27;21.60;99.90
18043;DHT22;9146;48.074;11.968;2023-08-01T13:54:54;21.80;99.90
18043;DHT22;9146;48.074;11.968;2023-08-01T13:57:21;22.20;99.90
18043;DHT22;9146;48.074;11.968;2023-08-01T13:59:49;22.30;99.90
18043;DHT22;9146;48.074;11.968;2023-08-01T14:02:16;22.10;99.90
18043;DHT22;9146;48.074;11.968;2023-08-01T14:04:43;22.10;99.90
18043;DHT22;9146;48.074;11.968;2023-08-01T14:07:09;22.00;99.90
18043;DHT22;9146;48.074;11.968;2023-08-01T14:09:38;21.90;99.90
18043;DHT22;9146;48.074;11.968;2023-08-01T14:12:06;21.90;99.90
18043;DHT22;9146;48.074;11.968;2023-08-01T14:14:33;21.90;99.90
18043;DHT22;9146;48.074;11.968;2023-08-01T14:16:59;22.00;99.90
18043;DHT22;9146;48.074;11.968;2023-08-01T14:19:26;22.10;99.90
18043;DHT22;9146;48.074;11.968;2023-08-01T14:21:55;22.40;99.90
18043;DHT22;9146;48.074;11.968;2023-08-01T14:24:22;22.60;99.90
18043;DHT22;9146;48.074;11.968;2023-08-01T14:26:51;22.70;99.90
18043;DHT22;9146;48.074;11.968;2023-08-01T14:29:18;22.70;99.90
18043;DHT22;9146;48.074;11.968;2023-08-01T14:31:48;22.60;99.90
18043;DHT22;9146;48.074;11.968;2023-08-01T14:34:15;22.50;99.90
18043;DHT22;9146;48.074;11.968;2023-08-01T14:36:42;22.40;99.90
18043;DHT22;9146;48.074;11.968;2023-08-01T14:39:09;22.30;99.90
18043;DHT22;9146;48.074;11.968;2023-08-01T14:41:36;22.10;99.90
18043;DHT22;9146;48.074;11.968;2023-08-01T14:44:04;21.90;99.90
18043;DHT22;9146;48.074;11.968;2023-08-01T14:46:31;21.90;99.90
18043;DHT22;9146;48.074;11.968;2023-08-01T14:48:58;21.80;99.90
18043;DHT22;9146;48.074;11.968;2023-08-01T14:51:25;21.70;99.90
18043;DHT22;9146;48.074;11.968;2023-08-01T14:53:52;21.50;99.90
18043;DHT22;9146;48.074;11.968;2023-08-01T14:56:19;21.30;99.90
18043;DHT22;9146;48.074;11.968;2023-08-01T14:58:46;21.10;99.90
18043;DHT22;9146;48.074;11.968;2023-08-01T15:01:15;21.00;99.90
18043;DHT22;9146;48.074;11.968;2023-08-01T15:03:43;20.90;99.90
18043;DHT22;9146;48.074;11.968;2023-08-01T15:06:10;20.70;99.90
18043;DHT22;9146;48.074;11.968;2023-08-01T15:08:38;20.60;99.90
18043;DHT22;9146;48.074;11.968;2023-08-01T15:11:06;20.60;99.90
18043;DHT22;9146;48.074;11.968;2023-08-01T15:13:34;20.60;99.90
18043;DHT22;9146;48.074;11.968;2023-08-01T15:16:01;20.80;99.90
18043;DHT22;9146;48.074;11.968;2023-08-01T15:18:29;21.30;99.90
18043;DHT22;9146;48.074;11.968;2023-08-01T15:20:56;21.70;99.90
18043;DHT22;9146;48.074;11.968;2023-08-01T15:23:23;22.20;99.90
18043;DHT22;9146;48.074;11.968;2023-08-01T15:25:54;22.40;99.90
18043;DHT22;9146;48.074;11.968;2023-08-01T15:28:21;22.50;99.90
18043;DHT22;9146;48.074;11.968;2023-08-01T15:30:48;22.30;99.90
18043;DHT22;9146;48.074;11.968;2023-08-01T15:33:16;21.90;99.90